createdAt,value
2018-12-16T00:00:53.910Z,87.88
2018-12-16T00:03:21.901Z,87.46
2018-12-16T00:05:49.833Z,87.90
2018-12-16T00:08:17.845Z,87.62
2018-12-16T00:10:45.911Z,87.85
2018-12-16T00:13:13.957Z,88.21
2018-12-16T00:15:42.103Z,88.57
2018-12-16T00:18:10.390Z,88.25
2018-12-16T00:20:38.362Z,88.38
2018-12-16T00:23:07.100Z,88.00
2018-12-16T00:25:35.194Z,87.89
2018-12-16T00:28:03.215Z,87.78
2018-12-16T00:30:31.183Z,87.60
2018-12-16T00:32:59.170Z,87.81
2018-12-16T00:35:27.137Z,87.55
2018-12-16T00:37:55.085Z,87.67
2018-12-16T00:40:23.045Z,87.91
2018-12-16T00:42:51.765Z,89.13
2018-12-16T00:45:19.795Z,88.88
2018-12-16T00:47:47.771Z,88.83
2018-12-16T00:50:15.802Z,88.43
2018-12-16T00:52:43.881Z,88.76
2018-12-16T00:55:11.886Z,88.37
2018-12-16T00:57:43.245Z,88.49
2018-12-16T01:00:12.557Z,88.04
2018-12-16T01:02:42.539Z,88.46
2018-12-16T01:05:10.889Z,88.35
2018-12-16T01:07:38.988Z,88.60
2018-12-16T01:10:08.450Z,88.87
2018-12-16T01:12:36.461Z,88.61
2018-12-16T01:15:04.898Z,88.48
2018-12-16T01:17:32.902Z,88.68
2018-12-16T01:20:01.724Z,88.59
2018-12-16T01:22:30.039Z,88.61
2018-12-16T01:24:58.070Z,88.75
2018-12-16T01:27:26.941Z,88.78
2018-12-16T01:29:54.985Z,88.85
2018-12-16T01:32:23.140Z,89.04
2018-12-16T01:34:51.110Z,88.97
2018-12-16T01:37:19.051Z,88.70
2018-12-16T01:39:47.599Z,88.72
2018-12-16T01:42:15.569Z,88.95
2018-12-16T01:44:43.528Z,88.87
2018-12-16T01:47:11.502Z,89.12
2018-12-16T01:49:39.479Z,89.26
2018-12-16T01:52:07.535Z,89.20
2018-12-16T01:54:35.504Z,89.39
2018-12-16T01:57:03.520Z,89.36
2018-12-16T01:59:31.500Z,89.27
2018-12-16T02:01:59.650Z,89.28
2018-12-16T02:04:28.450Z,89.10
2018-12-16T02:06:56.495Z,89.20
2018-12-16T02:09:24.509Z,89.06
2018-12-16T02:11:52.617Z,89.34
2018-12-16T02:14:20.544Z,89.26
2018-12-16T02:16:49.254Z,89.07
2018-12-16T02:19:17.224Z,88.56
2018-12-16T02:21:45.194Z,88.72
2018-12-16T02:24:13.186Z,88.62
2018-12-16T02:26:41.205Z,88.59
2018-12-16T02:29:09.206Z,88.69
2018-12-16T02:31:37.270Z,88.78
2018-12-16T02:34:05.645Z,88.86
2018-12-16T02:36:33.799Z,88.59
2018-12-16T02:39:01.818Z,88.34
2018-12-16T02:41:29.971Z,88.63
2018-12-16T02:43:57.972Z,88.49
2018-12-16T02:46:25.918Z,88.59
2018-12-16T02:48:54.033Z,88.62
2018-12-16T02:51:22.009Z,88.64
2018-12-16T02:53:50.009Z,88.59
2018-12-16T02:56:18.405Z,88.43
2018-12-16T02:58:46.473Z,88.34
2018-12-16T03:01:14.557Z,88.20
2018-12-16T03:03:42.514Z,88.14
2018-12-16T03:06:10.458Z,87.14
2018-12-16T03:08:38.474Z,87.01
2018-12-16T03:11:06.628Z,86.96
2018-12-16T03:13:34.720Z,86.21
2018-12-16T03:16:02.656Z,85.72
2018-12-16T03:18:30.713Z,85.89
2018-12-16T03:20:58.749Z,85.79
2018-12-16T03:23:26.885Z,85.58
2018-12-16T03:25:54.975Z,85.77
2018-12-16T03:28:22.899Z,85.22
2018-12-16T03:30:50.967Z,84.79
2018-12-16T03:33:19.026Z,84.98
2018-12-16T03:35:47.031Z,85.05
2018-12-16T03:38:15.059Z,85.31
2018-12-16T03:40:43.019Z,85.30
2018-12-16T03:43:10.998Z,85.59
2018-12-16T03:45:38.979Z,85.52
2018-12-16T03:48:06.967Z,85.45
2018-12-16T03:50:35.084Z,85.48
2018-12-16T03:53:03.080Z,85.55
2018-12-16T03:55:31.551Z,85.42
2018-12-16T03:57:59.598Z,85.07
2018-12-16T04:00:27.740Z,85.17
2018-12-16T04:02:55.756Z,85.26
2018-12-16T04:05:23.722Z,85.57
2018-12-16T04:07:51.707Z,85.66
2018-12-16T04:10:19.713Z,86.01
2018-12-16T04:12:47.686Z,85.76
2018-12-16T04:15:15.758Z,86.06
2018-12-16T04:17:43.767Z,86.02
2018-12-16T04:20:11.935Z,85.75
2018-12-16T04:22:40.641Z,85.35
2018-12-16T04:25:08.629Z,85.58
2018-12-16T04:27:36.591Z,85.70
2018-12-16T04:30:05.563Z,85.98
2018-12-16T04:32:33.510Z,85.80
2018-12-16T04:35:01.554Z,85.48
2018-12-16T04:37:29.594Z,85.81
2018-12-16T04:39:57.600Z,85.34
2018-12-16T04:42:25.746Z,85.23
2018-12-16T04:44:53.777Z,84.95
2018-12-16T04:47:21.766Z,85.21
2018-12-16T04:49:49.835Z,85.71
2018-12-16T04:52:17.912Z,85.96
2018-12-16T04:54:45.878Z,86.27
2018-12-16T04:57:14.058Z,86.49
2018-12-16T04:59:42.010Z,86.37
2018-12-16T05:02:09.953Z,86.27
2018-12-16T05:04:38.123Z,86.29
2018-12-16T05:07:06.067Z,86.17
2018-12-16T05:09:34.170Z,86.34
2018-12-16T05:12:02.161Z,86.13
2018-12-16T05:14:30.137Z,86.12
2018-12-16T05:16:58.091Z,86.16
2018-12-16T05:19:26.518Z,86.49
2018-12-16T05:21:54.490Z,86.78
2018-12-16T05:24:23.010Z,86.82
2018-12-16T05:26:50.962Z,86.95
2018-12-16T05:29:18.910Z,87.09
2018-12-16T05:31:46.985Z,86.95
2018-12-16T05:34:14.985Z,87.33
2018-12-16T05:36:42.939Z,87.41
2018-12-16T05:39:11.833Z,87.76
2018-12-16T05:41:39.817Z,87.86
2018-12-16T05:44:07.791Z,87.56
2018-12-16T05:46:35.753Z,87.04
2018-12-16T05:49:03.726Z,86.87
2018-12-16T05:51:31.699Z,86.82
2018-12-16T05:53:59.687Z,86.69
2018-12-16T05:56:27.621Z,85.98
2018-12-16T05:58:55.587Z,85.63
2018-12-16T06:01:23.623Z,85.57
2018-12-16T06:03:51.626Z,85.06
2018-12-16T06:06:19.590Z,84.89
2018-12-16T06:08:47.638Z,84.47
2018-12-16T06:11:15.667Z,84.60
2018-12-16T06:13:43.705Z,84.63
2018-12-16T06:16:11.698Z,84.59
2018-12-16T06:18:39.694Z,84.65
2018-12-16T06:21:07.688Z,84.11
2018-12-16T06:23:35.727Z,84.40
2018-12-16T06:26:03.758Z,84.39
2018-12-16T06:28:31.709Z,84.55
2018-12-16T06:30:59.699Z,84.44
2018-12-16T06:33:27.679Z,84.34
2018-12-16T06:35:55.642Z,83.95
2018-12-16T06:38:23.629Z,84.15
2018-12-16T06:40:51.612Z,84.38
2018-12-16T06:43:19.677Z,84.07
2018-12-16T06:45:47.735Z,83.80
2018-12-16T06:48:15.686Z,83.30
2018-12-16T06:50:43.795Z,83.52
2018-12-16T06:53:11.819Z,83.72
2018-12-16T06:55:43.237Z,83.52
2018-12-16T06:58:09.899Z,83.53
2018-12-16T07:00:37.854Z,83.66
2018-12-16T07:03:05.857Z,82.79
2018-12-16T07:05:33.890Z,82.88
2018-12-16T07:08:01.926Z,82.83
2018-12-16T07:10:29.880Z,83.45
2018-12-16T07:12:57.916Z,83.05
2018-12-16T07:15:25.894Z,82.85
2018-12-16T07:17:53.924Z,83.29
2018-12-16T07:20:21.971Z,84.16
2018-12-16T07:22:50.054Z,82.65
2018-12-16T07:25:18.037Z,82.41
2018-12-16T07:27:46.200Z,82.25
2018-12-16T07:30:14.997Z,82.32
2018-12-16T07:32:42.978Z,82.17
2018-12-16T07:35:10.922Z,82.39
2018-12-16T07:37:38.905Z,81.94
2018-12-16T07:40:06.977Z,82.18
2018-12-16T07:42:35.007Z,81.74
2018-12-16T07:45:03.381Z,82.34
2018-12-16T07:47:31.358Z,82.63
2018-12-16T07:49:59.367Z,82.41
2018-12-16T07:52:27.374Z,82.54
2018-12-16T07:54:55.339Z,82.25
2018-12-16T07:57:23.365Z,82.09
2018-12-16T07:59:51.323Z,82.20
2018-12-16T08:02:19.443Z,82.47
2018-12-16T08:04:48.143Z,82.21
2018-12-16T08:07:16.079Z,82.21
2018-12-16T08:09:44.159Z,82.17
2018-12-16T08:12:12.207Z,82.38
2018-12-16T08:14:41.098Z,81.82
2018-12-16T08:17:09.965Z,81.73
2018-12-16T08:19:37.934Z,81.53
2018-12-16T08:22:05.966Z,81.48
2018-12-16T08:24:33.974Z,81.89
2018-12-16T08:27:02.800Z,82.21
2018-12-16T08:29:30.883Z,81.54
2018-12-16T08:31:59.018Z,81.41
2018-12-16T08:34:26.972Z,81.52
2018-12-16T08:36:54.967Z,80.84
2018-12-16T08:39:22.957Z,80.86
2018-12-16T08:41:50.914Z,80.17
2018-12-16T08:44:18.907Z,80.66
2018-12-16T08:46:47.274Z,80.93
2018-12-16T08:49:15.234Z,80.93
2018-12-16T08:51:43.299Z,80.63
2018-12-16T08:54:11.257Z,80.81
2018-12-16T08:56:39.254Z,80.66
2018-12-16T08:59:07.232Z,80.78
2018-12-16T09:01:35.201Z,80.48
2018-12-16T09:04:03.164Z,80.71
2018-12-16T09:06:31.156Z,80.45
2018-12-16T09:08:59.440Z,80.47
2018-12-16T09:11:27.657Z,80.57
2018-12-16T09:13:55.621Z,80.57
2018-12-16T09:16:23.910Z,80.52
2018-12-16T09:18:51.851Z,80.46
2018-12-16T09:21:19.838Z,80.58
2018-12-16T09:23:47.825Z,80.17
2018-12-16T09:26:15.826Z,79.84
2018-12-16T09:28:43.789Z,79.80
2018-12-16T09:31:11.840Z,79.70
2018-12-16T09:33:39.809Z,79.70
2018-12-16T09:36:07.810Z,79.45
2018-12-16T09:38:36.455Z,79.18
2018-12-16T09:41:04.609Z,79.50
2018-12-16T09:43:32.718Z,79.05
2018-12-16T09:46:00.787Z,79.41
2018-12-16T09:48:28.814Z,79.03
2018-12-16T09:50:57.284Z,78.98
2018-12-16T09:53:25.289Z,79.16
2018-12-16T09:55:53.254Z,79.13
2018-12-16T09:58:21.226Z,78.84
2018-12-16T10:00:49.335Z,79.19
2018-12-16T10:03:17.325Z,85.77
2018-12-16T10:05:45.320Z,81.73
2018-12-16T10:08:13.307Z,77.87
2018-12-16T10:10:41.263Z,77.64
2018-12-16T10:13:09.404Z,80.35
2018-12-16T10:15:37.362Z,77.61
2018-12-16T10:18:05.358Z,77.26
2018-12-16T10:20:33.305Z,77.35
2018-12-16T10:23:01.298Z,77.35
2018-12-16T10:25:29.241Z,77.38
2018-12-16T10:27:57.280Z,77.42
2018-12-16T10:30:25.282Z,77.90
2018-12-16T10:32:53.283Z,77.47
2018-12-16T10:35:21.441Z,77.65
2018-12-16T10:37:49.774Z,77.46
2018-12-16T10:40:17.701Z,77.55
2018-12-16T10:42:45.854Z,77.57
2018-12-16T10:45:14.511Z,76.61
2018-12-16T10:47:42.641Z,77.48
2018-12-16T10:50:10.700Z,77.28
2018-12-16T10:52:38.737Z,77.45
2018-12-16T10:55:06.881Z,77.96
2018-12-16T10:57:34.897Z,77.70
2018-12-16T11:00:16.746Z,77.48
2018-12-16T11:02:44.738Z,77.52
2018-12-16T11:05:12.765Z,79.46
2018-12-16T11:07:41.053Z,79.03
2018-12-16T11:10:09.306Z,78.16
2018-12-16T11:12:39.245Z,77.30
2018-12-16T11:15:08.174Z,77.47
2018-12-16T11:17:36.292Z,77.80
2018-12-16T11:20:04.898Z,78.19
2018-12-16T11:22:32.870Z,78.21
2018-12-16T11:25:05.626Z,77.87
2018-12-16T11:27:30.893Z,78.77
2018-12-16T11:29:58.923Z,78.70
2018-12-16T11:32:26.898Z,77.62
2018-12-16T11:34:55.028Z,77.62
2018-12-16T11:37:22.998Z,78.12
2018-12-16T11:39:50.963Z,77.52
2018-12-16T11:42:18.946Z,77.61
2018-12-16T11:44:46.976Z,77.71
2018-12-16T11:47:15.190Z,76.58
2018-12-16T11:49:44.421Z,76.52
2018-12-16T11:52:12.545Z,76.85
2018-12-16T11:54:41.006Z,76.40
2018-12-16T11:57:10.081Z,76.29
2018-12-16T11:59:38.066Z,76.95
2018-12-16T12:02:06.180Z,77.40
2018-12-16T12:04:34.110Z,76.15
2018-12-16T12:07:02.111Z,76.42
2018-12-16T12:09:30.122Z,77.00
2018-12-16T12:11:58.102Z,76.88
2018-12-16T12:14:26.062Z,76.87
2018-12-16T12:16:54.063Z,76.78
2018-12-16T12:19:22.576Z,77.23
2018-12-16T12:21:50.802Z,76.62
2018-12-16T12:24:18.770Z,77.19
2018-12-16T12:26:46.773Z,76.80
2018-12-16T12:29:14.754Z,80.30
2018-12-16T12:31:42.720Z,80.83
2018-12-16T12:34:10.681Z,78.90
2018-12-16T12:36:38.757Z,78.61
2018-12-16T12:39:06.756Z,78.90
2018-12-16T12:41:34.781Z,78.54
2018-12-16T12:44:02.814Z,78.77
2018-12-16T12:46:30.754Z,78.98
2018-12-16T12:48:58.720Z,78.46
2018-12-16T12:51:26.713Z,78.67
2018-12-16T12:53:54.695Z,78.74
2018-12-16T12:56:23.200Z,78.26
2018-12-16T12:58:51.155Z,78.44
2018-12-16T13:01:19.118Z,79.23
2018-12-16T13:03:47.087Z,79.31
2018-12-16T13:06:15.026Z,79.14
2018-12-16T13:08:42.984Z,79.62
2018-12-16T13:11:11.060Z,79.50
2018-12-16T13:13:39.097Z,79.54
2018-12-16T13:16:07.297Z,79.00
2018-12-16T13:18:35.786Z,78.89
2018-12-16T13:21:03.753Z,78.93
2018-12-16T13:23:31.703Z,79.27
2018-12-16T13:26:02.438Z,78.66
2018-12-16T13:28:30.554Z,79.45
2018-12-16T13:30:58.561Z,79.22
2018-12-16T13:33:26.587Z,79.31
2018-12-16T13:35:54.611Z,79.00
2018-12-16T13:38:22.639Z,78.80
2018-12-16T13:40:50.699Z,78.83
2018-12-16T13:43:18.662Z,79.39
2018-12-16T13:45:46.671Z,79.16
2018-12-16T13:48:14.650Z,79.06
2018-12-16T13:50:42.970Z,78.30
2018-12-16T13:53:10.910Z,78.80
2018-12-16T13:55:40.997Z,78.98
2018-12-16T13:58:08.899Z,78.72
2018-12-16T14:00:36.885Z,78.45
2018-12-16T14:03:04.892Z,78.51
2018-12-16T14:05:32.982Z,78.26
2018-12-16T14:08:00.932Z,77.46
2018-12-16T14:10:28.921Z,77.69
2018-12-16T14:12:56.912Z,77.83
2018-12-16T14:15:24.927Z,78.69
2018-12-16T14:17:52.914Z,77.87
2018-12-16T14:20:21.630Z,78.06
2018-12-16T14:22:49.627Z,77.44
2018-12-16T14:25:17.654Z,76.97
2018-12-16T14:27:45.650Z,76.33
2018-12-16T14:30:13.622Z,75.68
2018-12-16T14:32:41.747Z,76.43
2018-12-16T14:35:10.542Z,75.78
2018-12-16T14:37:38.592Z,77.04
2018-12-16T14:40:08.109Z,76.31
2018-12-16T14:42:36.477Z,76.74
2018-12-16T14:45:06.538Z,76.98
2018-12-16T14:47:34.498Z,76.99
2018-12-16T14:50:02.517Z,77.09
2018-12-16T14:52:30.565Z,76.94
2018-12-16T14:54:58.503Z,76.16
2018-12-16T14:57:26.541Z,76.55
2018-12-16T14:59:54.511Z,77.06
2018-12-16T15:02:22.447Z,76.31
2018-12-16T15:04:50.401Z,76.37
2018-12-16T15:07:18.373Z,76.56
2018-12-16T15:09:46.542Z,76.66
2018-12-16T15:12:14.560Z,76.97
2018-12-16T15:14:42.917Z,76.26
2018-12-16T15:17:10.990Z,76.19
2018-12-16T15:19:38.988Z,76.55
2018-12-16T15:22:06.962Z,76.38
2018-12-16T15:24:34.910Z,76.52
2018-12-16T15:27:02.923Z,76.16
2018-12-16T15:29:30.871Z,76.81
2018-12-16T15:31:59.395Z,77.21
2018-12-16T15:34:27.377Z,77.07
2018-12-16T15:36:55.959Z,76.44
2018-12-16T15:39:23.975Z,77.14
2018-12-16T15:41:52.002Z,76.52
2018-12-16T15:44:20.072Z,76.27
2018-12-16T15:46:48.041Z,75.89
2018-12-16T15:49:16.112Z,76.11
2018-12-16T15:51:44.170Z,76.42
2018-12-16T15:54:12.544Z,76.68
2018-12-16T15:56:40.595Z,76.49
2018-12-16T15:59:08.580Z,77.09
2018-12-16T16:01:37.508Z,76.43
2018-12-16T16:04:06.671Z,77.08
2018-12-16T16:06:34.636Z,76.63
2018-12-16T16:09:03.296Z,76.40
2018-12-16T16:11:32.278Z,76.67
2018-12-16T16:14:01.448Z,77.59
2018-12-16T16:16:29.379Z,77.72
2018-12-16T16:18:57.452Z,76.90
2018-12-16T16:21:25.455Z,77.41
2018-12-16T16:23:53.432Z,77.50
2018-12-16T16:26:21.398Z,77.52
2018-12-16T16:28:50.331Z,77.49
2018-12-16T16:31:18.469Z,78.08
2018-12-16T16:33:46.410Z,77.96
2018-12-16T16:36:14.406Z,76.82
2018-12-16T16:38:42.476Z,77.15
2018-12-16T16:41:10.531Z,77.18
2018-12-16T16:43:38.505Z,77.00
2018-12-16T16:46:06.573Z,77.13
2018-12-16T16:48:34.554Z,77.13
2018-12-16T16:51:02.722Z,77.84
2018-12-16T16:53:30.694Z,77.46
2018-12-16T16:56:01.463Z,77.52
2018-12-16T16:58:29.471Z,77.60
2018-12-16T17:00:57.466Z,77.50
2018-12-16T17:03:25.542Z,77.16
2018-12-16T17:05:53.622Z,78.78
2018-12-16T17:08:21.611Z,78.80
2018-12-16T17:10:49.657Z,77.37
2018-12-16T17:13:18.361Z,77.48
2018-12-16T17:15:46.373Z,77.58
2018-12-16T17:18:14.326Z,77.35
2018-12-16T17:20:42.475Z,77.05
2018-12-16T17:23:10.438Z,77.49
2018-12-16T17:25:38.567Z,77.50
2018-12-16T17:28:06.754Z,77.84
2018-12-16T17:30:34.794Z,77.75
2018-12-16T17:33:02.923Z,77.64
2018-12-16T17:35:30.894Z,77.48
2018-12-16T17:37:58.864Z,77.03
2018-12-16T17:40:26.831Z,77.01
2018-12-16T17:42:54.903Z,76.54
2018-12-16T17:45:22.981Z,77.11
2018-12-16T17:47:50.962Z,76.17
2018-12-16T17:50:18.946Z,76.64
2018-12-16T17:52:46.922Z,76.58
2018-12-16T17:55:14.925Z,77.76
2018-12-16T17:57:42.868Z,76.76
2018-12-16T18:00:11.488Z,77.23
2018-12-16T18:02:39.558Z,77.01
2018-12-16T18:05:07.558Z,77.84
2018-12-16T18:07:35.708Z,77.85
2018-12-16T18:10:04.574Z,77.64
2018-12-16T18:12:32.722Z,77.35
2018-12-16T18:15:00.929Z,77.49
2018-12-16T18:17:28.968Z,77.00
2018-12-16T18:19:57.021Z,77.89
2018-12-16T18:22:25.045Z,77.29
2018-12-16T18:24:57.133Z,78.02
2018-12-16T18:27:25.121Z,77.66
2018-12-16T18:29:53.089Z,77.47
2018-12-16T18:32:21.601Z,77.86
2018-12-16T18:34:49.946Z,78.07
2018-12-16T18:37:18.581Z,78.52
2018-12-16T18:39:46.558Z,81.08
2018-12-16T18:42:15.637Z,77.51
2018-12-16T18:44:43.603Z,77.45
2018-12-16T18:47:11.626Z,77.29
2018-12-16T18:49:39.697Z,77.52
2018-12-16T18:52:07.666Z,76.91
2018-12-16T18:54:35.844Z,76.94
2018-12-16T18:57:07.147Z,77.49
2018-12-16T18:59:33.850Z,77.18
2018-12-16T19:02:01.809Z,77.05
2018-12-16T19:04:29.786Z,77.57
2018-12-16T19:06:57.755Z,77.66
2018-12-16T19:09:25.737Z,77.55
2018-12-16T19:11:53.691Z,78.26
2018-12-16T19:14:21.853Z,77.74
2018-12-16T19:16:49.978Z,77.93
2018-12-16T19:19:18.010Z,77.74
2018-12-16T19:21:45.978Z,78.36
2018-12-16T19:24:13.997Z,77.98
2018-12-16T19:26:42.009Z,78.10
2018-12-16T19:29:10.100Z,78.00
2018-12-16T19:31:38.100Z,77.59
2018-12-16T19:34:06.103Z,77.99
2018-12-16T19:36:34.300Z,77.46
2018-12-16T19:39:05.071Z,77.87
2018-12-16T19:41:33.215Z,77.81
2018-12-16T19:44:01.230Z,77.68
2018-12-16T19:46:30.060Z,77.50
2018-12-16T19:48:58.045Z,78.06
2018-12-16T19:51:27.490Z,77.77
2018-12-16T19:53:55.514Z,78.18
2018-12-16T19:56:23.796Z,78.12
2018-12-16T19:58:52.398Z,81.72
2018-12-16T20:01:20.511Z,78.74
2018-12-16T20:03:54.276Z,77.55
2018-12-16T20:06:27.804Z,78.03
2018-12-16T20:08:55.803Z,77.39
2018-12-16T20:11:25.115Z,77.54
2018-12-16T20:13:53.134Z,77.82
2018-12-16T20:16:21.189Z,77.87
2018-12-16T20:18:49.433Z,77.40
2018-12-16T20:21:17.449Z,77.69
2018-12-16T20:23:45.504Z,77.79
2018-12-16T20:26:13.484Z,77.69
2018-12-16T20:28:41.512Z,77.94
2018-12-16T20:31:09.556Z,77.35
2018-12-16T20:33:37.775Z,77.29
2018-12-16T20:36:05.779Z,77.12
2018-12-16T20:38:33.734Z,76.87
2018-12-16T20:41:01.887Z,77.26
2018-12-16T20:43:29.883Z,76.75
2018-12-16T20:45:58.393Z,76.60
2018-12-16T20:48:26.326Z,77.38
2018-12-16T20:50:54.505Z,77.11
2018-12-16T20:53:22.486Z,77.46
2018-12-16T20:55:50.956Z,77.93
2018-12-16T20:58:19.088Z,77.84
2018-12-16T21:00:47.105Z,77.70
2018-12-16T21:03:15.114Z,77.73
2018-12-16T21:05:43.217Z,77.81
2018-12-16T21:08:11.353Z,77.39
2018-12-16T21:10:39.404Z,77.16
2018-12-16T21:13:13.216Z,77.39
2018-12-16T21:15:47.071Z,77.61
2018-12-16T21:18:22.382Z,77.52
2018-12-16T21:20:51.589Z,77.29
2018-12-16T21:23:19.809Z,77.57
2018-12-16T21:25:47.771Z,77.61
2018-12-16T21:28:16.307Z,77.92
2018-12-16T21:30:44.326Z,78.12
2018-12-16T21:33:12.716Z,78.54
2018-12-16T21:35:40.713Z,78.32
2018-12-16T21:38:08.733Z,78.21
2018-12-16T21:40:36.803Z,82.15
2018-12-16T21:43:05.402Z,79.03
2018-12-16T21:45:33.387Z,77.82
2018-12-16T21:48:01.350Z,77.35
2018-12-16T21:50:29.343Z,75.97
2018-12-16T21:52:58.342Z,75.22
2018-12-16T21:55:26.329Z,74.39
2018-12-16T21:57:54.372Z,74.49
2018-12-16T22:00:22.465Z,74.30
2018-12-16T22:02:50.424Z,75.17
2018-12-16T22:05:20.320Z,76.56
2018-12-16T22:07:48.503Z,76.47
2018-12-16T22:10:16.455Z,75.87
2018-12-16T22:12:44.523Z,77.23
2018-12-16T22:15:13.263Z,76.10
2018-12-16T22:17:41.471Z,77.08
2018-12-16T22:20:09.814Z,77.65
2018-12-16T22:22:37.741Z,77.08
2018-12-16T22:25:05.886Z,77.39
2018-12-16T22:27:40.036Z,77.15
2018-12-16T22:30:05.470Z,77.36
2018-12-16T22:32:33.459Z,77.35
2018-12-16T22:35:01.411Z,76.86
2018-12-16T22:37:29.535Z,77.42
2018-12-16T22:39:57.593Z,77.02
2018-12-16T22:42:25.687Z,76.66
2018-12-16T22:44:53.766Z,77.23
2018-12-16T22:47:21.750Z,77.45
2018-12-16T22:49:49.774Z,77.77
2018-12-16T22:52:18.283Z,77.72
2018-12-16T22:54:46.387Z,78.29
2018-12-16T22:57:14.426Z,77.54
2018-12-16T22:59:42.399Z,77.48
2018-12-16T23:02:10.397Z,77.75
2018-12-16T23:04:39.085Z,77.87
2018-12-16T23:07:07.208Z,78.41
2018-12-16T23:09:35.131Z,78.27
2018-12-16T23:12:03.278Z,77.84
2018-12-16T23:14:32.535Z,78.70
2018-12-16T23:17:01.375Z,78.54
2018-12-16T23:19:29.413Z,79.05
2018-12-16T23:21:57.697Z,78.98
2018-12-16T23:24:26.587Z,78.99
2018-12-16T23:26:54.557Z,78.78
2018-12-16T23:29:22.546Z,78.67
2018-12-16T23:31:50.614Z,78.45
2018-12-16T23:34:19.002Z,78.58
2018-12-16T23:36:46.973Z,78.94
2018-12-16T23:39:15.526Z,78.89
2018-12-16T23:41:43.552Z,79.09
2018-12-16T23:44:11.689Z,78.74
2018-12-16T23:46:39.643Z,78.99
2018-12-16T23:49:07.615Z,79.51
2018-12-16T23:51:37.210Z,78.67
2018-12-16T23:54:05.370Z,79.19
2018-12-16T23:56:33.673Z,79.67
2018-12-16T23:59:01.918Z,79.26
